createdAt,value
2022-11-08T00:02:11.809Z,7.65
2022-11-08T00:04:39.109Z,7.07
2022-11-08T00:07:24.766Z,7.15
2022-11-08T00:10:10.220Z,6.10
2022-11-08T00:12:56.371Z,6.00
2022-11-08T00:15:23.310Z,5.93
2022-11-08T00:17:50.247Z,7.18
2022-11-08T00:20:17.242Z,8.25
2022-11-08T00:22:44.191Z,4.70
2022-11-08T00:25:11.521Z,4.40
2022-11-08T00:27:38.532Z,5.60
2022-11-08T00:30:07.032Z,3.70
2022-11-08T00:32:34.047Z,3.55
2022-11-08T00:35:00.997Z,3.20
2022-11-08T00:37:27.889Z,3.03
2022-11-08T00:39:54.812Z,2.40
2022-11-08T00:42:21.738Z,2.67
2022-11-08T00:44:48.661Z,8.15
2022-11-08T00:47:15.629Z,4.53
2022-11-08T00:49:42.543Z,3.25
2022-11-08T00:52:09.999Z,3.72
2022-11-08T00:54:36.910Z,5.00
2022-11-08T00:57:03.930Z,4.55
2022-11-08T00:59:30.860Z,4.40
2022-11-08T01:01:57.865Z,3.45
2022-11-08T01:04:24.891Z,3.55
2022-11-08T01:06:52.651Z,2.63
2022-11-08T01:09:19.597Z,3.28
2022-11-08T01:11:47.863Z,5.40
2022-11-08T01:14:15.498Z,4.90
2022-11-08T01:16:43.005Z,5.82
2022-11-08T01:19:10.179Z,3.00
2022-11-08T01:21:37.536Z,6.55
2022-11-08T01:24:05.022Z,2.70
2022-11-08T01:26:32.015Z,4.15
2022-11-08T01:28:59.265Z,7.85
2022-11-08T01:31:29.714Z,4.18
2022-11-08T01:33:58.142Z,6.95
2022-11-08T01:36:27.059Z,5.38
2022-11-08T01:38:54.853Z,5.65
2022-11-08T01:41:24.074Z,4.22
2022-11-08T01:43:53.475Z,4.78
2022-11-08T01:46:20.382Z,3.95
2022-11-08T01:48:58.172Z,4.13
2022-11-08T01:51:30.960Z,4.63
2022-11-08T01:54:01.140Z,3.65
2022-11-08T01:56:28.216Z,4.03
2022-11-08T01:58:58.029Z,2.72
2022-11-08T02:01:25.863Z,3.38
2022-11-08T02:03:53.266Z,2.97
2022-11-08T02:06:20.476Z,3.10
2022-11-08T02:08:47.590Z,3.28
2022-11-08T02:11:16.454Z,3.22
2022-11-08T02:13:43.569Z,5.18
2022-11-08T02:16:15.607Z,7.97
2022-11-08T02:18:44.953Z,2.67
2022-11-08T02:21:46.964Z,10.45
2022-11-08T02:24:14.871Z,3.67
2022-11-08T02:26:42.664Z,4.75
2022-11-08T02:29:27.581Z,3.78
2022-11-08T02:31:56.110Z,12.60
2022-11-08T02:34:34.473Z,2.65
2022-11-08T02:37:03.173Z,8.80
2022-11-08T02:39:30.666Z,4.63
2022-11-08T02:41:57.630Z,5.07
2022-11-08T02:44:24.605Z,3.42
2022-11-08T02:46:51.515Z,2.15
2022-11-08T02:49:18.446Z,6.13
2022-11-08T02:51:45.398Z,4.55
2022-11-08T02:54:12.333Z,8.25
2022-11-08T02:56:39.336Z,4.85
2022-11-08T02:59:06.608Z,4.28
2022-11-08T03:01:33.668Z,3.88
2022-11-08T03:04:00.747Z,2.72
2022-11-08T03:06:29.020Z,3.42
2022-11-08T03:08:55.986Z,5.07
2022-11-08T03:11:22.906Z,3.58
2022-11-08T03:13:49.819Z,4.45
2022-11-08T03:16:16.908Z,2.33
2022-11-08T03:18:44.099Z,3.78
2022-11-08T03:21:11.413Z,3.45
2022-11-08T03:23:38.370Z,3.72
2022-11-08T03:26:05.540Z,4.80
2022-11-08T03:28:32.906Z,3.50
2022-11-08T03:30:59.924Z,2.70
2022-11-08T03:33:27.010Z,4.20
2022-11-08T03:35:54.002Z,1.80
2022-11-08T03:38:20.991Z,5.20
2022-11-08T03:40:48.050Z,4.03
2022-11-08T03:43:15.372Z,6.95
2022-11-08T03:45:42.590Z,2.47
2022-11-08T03:48:09.570Z,1.92
2022-11-08T03:50:36.526Z,9.23
2022-11-08T03:53:03.841Z,3.30
2022-11-08T03:55:30.935Z,3.40
2022-11-08T03:57:57.894Z,2.92
2022-11-08T04:00:27.683Z,6.38
2022-11-08T04:03:00.183Z,3.70
2022-11-08T04:05:27.127Z,4.35
2022-11-08T04:07:54.188Z,1.98
2022-11-08T04:10:21.102Z,2.75
2022-11-08T04:13:06.578Z,1.70
2022-11-08T04:15:33.538Z,1.77
2022-11-08T04:18:19.311Z,2.40
2022-11-08T04:21:07.093Z,1.83
2022-11-08T04:23:36.305Z,4.28
2022-11-08T04:26:06.333Z,7.47
2022-11-08T04:28:36.285Z,5.78
2022-11-08T04:31:07.179Z,6.15
2022-11-08T04:33:34.134Z,6.45
2022-11-08T04:36:06.917Z,9.93
2022-11-08T04:38:34.483Z,14.18
2022-11-08T04:41:07.287Z,15.10
2022-11-08T04:43:34.911Z,14.40
2022-11-08T04:46:13.171Z,14.25
2022-11-08T04:48:41.347Z,14.10
2022-11-08T04:51:14.895Z,12.15
2022-11-08T04:53:42.253Z,19.52
2022-11-08T04:56:11.814Z,11.63
2022-11-08T04:58:44.263Z,14.63
2022-11-08T05:01:13.824Z,12.25
2022-11-08T05:03:40.899Z,16.90
2022-11-08T05:06:11.592Z,11.48
2022-11-08T05:08:39.219Z,14.30
2022-11-08T05:11:11.698Z,15.15
2022-11-08T05:13:39.116Z,14.57
2022-11-08T05:16:10.078Z,12.93
2022-11-08T05:18:37.020Z,13.27
2022-11-08T05:21:23.159Z,14.40
2022-11-08T05:23:51.052Z,14.75
2022-11-08T05:26:19.338Z,16.33
2022-11-08T05:28:46.728Z,10.93
2022-11-08T05:31:14.148Z,9.85
2022-11-08T05:33:41.332Z,18.52
2022-11-08T05:36:13.601Z,10.38
2022-11-08T05:38:41.030Z,7.32
2022-11-08T05:41:16.192Z,11.07
2022-11-08T05:43:45.159Z,11.15
2022-11-08T05:46:12.122Z,9.35
2022-11-08T05:48:41.459Z,12.48
2022-11-08T05:51:08.677Z,7.35
2022-11-08T05:53:35.961Z,6.65
2022-11-08T05:56:03.997Z,11.98
2022-11-08T05:58:32.566Z,7.28
2022-11-08T06:01:09.326Z,9.95
2022-11-08T06:03:37.301Z,11.00
2022-11-08T06:06:12.956Z,13.90
2022-11-08T06:08:40.639Z,11.73
2022-11-08T06:11:12.899Z,7.85
2022-11-08T06:13:40.768Z,13.27
2022-11-08T06:16:10.886Z,10.02
2022-11-08T06:18:38.607Z,10.88
2022-11-08T06:21:07.804Z,17.65
2022-11-08T06:23:34.969Z,16.92
2022-11-08T06:26:02.149Z,20.67
2022-11-08T06:28:29.153Z,10.63
2022-11-08T06:30:59.046Z,13.63
2022-11-08T06:33:26.300Z,19.05
2022-11-08T06:35:53.508Z,15.88
2022-11-08T06:38:21.419Z,14.00
2022-11-08T06:40:48.858Z,17.08
2022-11-08T06:43:19.546Z,17.48
2022-11-08T06:45:47.744Z,35.05
2022-11-08T06:48:14.832Z,16.65
2022-11-08T06:50:42.764Z,19.92
2022-11-08T06:53:13.413Z,14.32
2022-11-08T06:55:41.168Z,13.38
2022-11-08T06:58:08.281Z,20.13
2022-11-08T07:00:35.378Z,26.92
2022-11-08T07:03:03.959Z,22.92
2022-11-08T07:05:33.027Z,21.08
2022-11-08T07:08:01.056Z,17.92
2022-11-08T07:10:31.576Z,16.10
2022-11-08T07:13:03.935Z,20.73
2022-11-08T07:15:32.423Z,15.23
2022-11-08T07:18:04.018Z,20.05
2022-11-08T07:20:31.331Z,26.15
2022-11-08T07:22:59.156Z,23.33
2022-11-08T07:25:27.633Z,15.38
2022-11-08T07:28:00.037Z,21.60
2022-11-08T07:30:28.086Z,19.55
2022-11-08T07:32:56.477Z,24.88
2022-11-08T07:35:24.443Z,21.05
2022-11-08T07:37:51.573Z,18.00
2022-11-08T07:40:18.553Z,15.48
2022-11-08T07:43:10.035Z,12.68
2022-11-08T07:45:32.603Z,15.15
2022-11-08T07:48:10.694Z,11.25
2022-11-08T07:50:40.017Z,13.77
2022-11-08T07:53:07.010Z,19.42
2022-11-08T07:55:36.853Z,16.27
2022-11-08T07:58:04.087Z,13.65
2022-11-08T08:00:32.214Z,11.77
2022-11-08T08:03:02.985Z,16.50
2022-11-08T08:05:33.457Z,16.48
2022-11-08T08:08:02.057Z,18.15
2022-11-08T08:10:30.611Z,12.13
2022-11-08T08:12:57.946Z,22.52
2022-11-08T08:15:25.746Z,22.25
2022-11-08T08:22:51.245Z,20.83
2022-11-08T08:25:18.995Z,14.82
2022-11-08T08:27:53.714Z,19.40
2022-11-08T08:30:21.475Z,19.77
2022-11-08T08:33:02.152Z,17.65
2022-11-08T08:35:37.107Z,12.63
2022-11-08T08:38:05.631Z,8.50
2022-11-08T08:40:33.917Z,8.20
2022-11-08T08:43:03.553Z,12.45
2022-11-08T08:45:34.367Z,9.32
2022-11-08T08:48:01.627Z,10.00
2022-11-08T08:50:30.706Z,14.55
2022-11-08T08:53:02.216Z,10.48
2022-11-08T08:55:29.643Z,15.75
2022-11-08T08:57:56.878Z,10.52
2022-11-08T09:03:12.234Z,14.00
2022-11-08T09:05:44.160Z,10.05
2022-11-08T09:08:11.892Z,14.57
2022-11-08T09:10:38.867Z,11.32
2022-11-08T09:13:05.848Z,10.18
2022-11-08T09:15:33.072Z,7.05
2022-11-08T09:18:00.260Z,12.73
2022-11-08T09:20:27.253Z,9.27
2022-11-08T09:22:54.227Z,10.00
2022-11-08T09:25:21.134Z,10.50
2022-11-08T09:27:48.069Z,10.13
2022-11-08T09:30:14.998Z,13.50
2022-11-08T09:35:29.363Z,15.40
2022-11-08T09:37:56.830Z,17.70
2022-11-08T09:40:38.281Z,17.83
2022-11-08T09:43:08.268Z,12.82
2022-11-08T09:45:40.723Z,13.02
2022-11-08T09:48:29.473Z,13.88
2022-11-08T09:50:59.240Z,8.85
2022-11-08T09:53:34.876Z,11.48
2022-11-08T09:56:16.731Z,16.10
2022-11-08T09:58:52.138Z,14.77
2022-11-08T10:03:56.300Z,13.60
2022-11-08T14:42:04.185Z,8.73
2022-11-08T14:44:31.687Z,3.10
2022-11-08T14:47:01.556Z,7.15
2022-11-08T14:49:37.925Z,4.35
2022-11-08T14:52:22.633Z,8.23
2022-11-08T14:55:05.893Z,4.95
2022-11-08T14:57:37.124Z,7.60
2022-11-08T15:00:15.279Z,5.05
2022-11-08T15:02:45.783Z,6.60
2022-11-08T15:07:59.715Z,9.13
2022-11-08T15:10:27.730Z,6.68
2022-11-08T15:12:55.454Z,10.73
2022-11-08T15:15:29.890Z,10.07
2022-11-08T15:18:14.014Z,10.00
2022-11-08T15:20:53.642Z,11.23
2022-11-08T15:23:49.818Z,6.97
2022-11-08T15:26:28.135Z,7.40
2022-11-08T15:29:19.828Z,10.30
2022-11-08T15:32:01.418Z,8.35
2022-11-08T15:34:38.699Z,13.43
2022-11-08T15:37:27.720Z,10.73
2022-11-08T15:39:55.679Z,13.35
2022-11-08T15:47:47.494Z,10.82
2022-11-08T15:50:18.223Z,17.95
2022-11-08T15:52:47.096Z,17.40
2022-11-08T15:55:16.904Z,21.15
2022-11-08T15:57:45.709Z,19.08
2022-11-08T16:00:22.367Z,16.65
2022-11-08T16:02:49.438Z,19.80
2022-11-08T16:05:25.427Z,15.98
2022-11-08T16:07:52.914Z,16.88
2022-11-08T16:10:28.643Z,19.08
2022-11-08T16:12:56.694Z,16.65
2022-11-08T16:15:25.175Z,12.43
2022-11-08T16:17:52.164Z,17.60
2022-11-08T16:20:32.720Z,15.13
2022-11-08T16:23:05.746Z,14.65
2022-11-08T16:25:39.560Z,16.90
2022-11-08T16:30:39.964Z,26.65
2022-11-08T16:33:22.397Z,17.20
2022-11-08T16:35:50.818Z,30.40
2022-11-08T16:38:30.041Z,29.23
2022-11-08T16:40:57.102Z,25.67
2022-11-08T16:43:24.203Z,26.15
2022-11-08T16:46:05.102Z,31.52
2022-11-08T16:48:33.950Z,28.25
2022-11-08T16:51:03.086Z,40.90
2022-11-08T16:53:30.399Z,25.40
2022-11-08T16:55:57.964Z,24.80
2022-11-08T16:58:25.964Z,25.85
2022-11-08T17:00:53.018Z,32.97
2022-11-08T17:03:24.665Z,28.88
2022-11-08T17:05:54.204Z,26.98
2022-11-08T17:08:22.041Z,18.55
2022-11-08T17:10:49.172Z,22.95
2022-11-08T17:13:17.844Z,25.63
2022-11-08T17:15:46.040Z,22.13
2022-11-08T17:18:15.002Z,25.50
2022-11-08T17:20:42.266Z,27.92
2022-11-08T17:23:10.157Z,36.95
2022-11-08T17:25:39.913Z,35.42
2022-11-08T17:28:06.883Z,24.50
2022-11-08T17:30:34.055Z,20.58
2022-11-08T17:33:01.097Z,25.92
2022-11-08T17:35:28.095Z,24.00
2022-11-08T17:37:55.163Z,21.13
2022-11-08T17:40:22.153Z,18.77
2022-11-08T17:42:49.635Z,17.40
2022-11-08T17:45:16.600Z,18.85
2022-11-08T17:47:43.638Z,21.58
2022-11-08T17:50:10.923Z,15.15
2022-11-08T17:52:38.149Z,24.38
2022-11-08T17:55:05.556Z,21.33
2022-11-08T17:57:32.719Z,21.00
2022-11-08T17:59:59.742Z,16.73
2022-11-08T18:02:28.131Z,20.20
2022-11-08T18:04:57.136Z,20.90
2022-11-08T18:07:24.769Z,24.73
2022-11-08T18:09:51.742Z,17.38
2022-11-08T18:12:18.718Z,15.25
2022-11-08T18:14:45.655Z,18.73
2022-11-08T18:17:12.594Z,25.48
2022-11-08T18:19:39.628Z,20.85
2022-11-08T18:22:06.558Z,26.95
2022-11-08T18:24:33.531Z,23.27
2022-11-08T18:27:00.442Z,26.88
2022-11-08T18:29:27.440Z,16.30
2022-11-08T18:31:54.466Z,18.10
2022-11-08T18:34:21.434Z,27.17
2022-11-08T18:36:49.330Z,23.45
2022-11-08T18:39:19.462Z,30.45
2022-11-08T18:41:47.287Z,23.45
2022-11-08T18:44:14.265Z,23.88
2022-11-08T18:46:43.399Z,17.25
2022-11-08T18:49:11.258Z,19.38
2022-11-08T18:51:38.418Z,14.70
2022-11-08T18:54:05.370Z,17.08
2022-11-08T18:56:32.341Z,21.00
2022-11-08T18:58:59.399Z,18.20
2022-11-08T19:01:26.414Z,16.48
2022-11-08T19:03:53.429Z,16.30
2022-11-08T19:06:20.422Z,19.15
2022-11-08T19:08:47.435Z,14.73
2022-11-08T19:11:14.941Z,16.38
2022-11-08T19:13:42.190Z,17.35
2022-11-08T19:16:13.572Z,17.40
2022-11-08T19:18:42.326Z,18.85
2022-11-08T19:21:17.980Z,18.00
2022-11-08T19:23:46.035Z,22.02
2022-11-08T19:26:16.317Z,20.73
2022-11-08T19:28:47.819Z,18.05
2022-11-08T19:31:20.199Z,24.52
2022-11-08T19:33:48.528Z,22.98
2022-11-08T19:36:18.290Z,20.33
2022-11-08T19:38:46.443Z,22.10
2022-11-08T19:41:18.995Z,23.05
2022-11-08T19:43:46.748Z,23.73
2022-11-08T19:46:19.363Z,24.60
2022-11-08T19:48:48.691Z,34.30
2022-11-08T19:51:21.601Z,24.70
2022-11-08T19:53:49.364Z,26.90
2022-11-08T19:56:18.841Z,22.05
2022-11-08T19:58:46.523Z,25.25
2022-11-08T20:01:19.688Z,25.00
2022-11-08T20:03:47.639Z,29.15
2022-11-08T20:06:17.886Z,28.75
2022-11-08T20:08:48.707Z,26.98
2022-11-08T20:11:19.322Z,29.42
2022-11-08T20:13:46.903Z,20.17
2022-11-08T20:16:19.123Z,21.90
2022-11-08T20:18:46.673Z,26.58
2022-11-08T20:21:15.768Z,24.50
2022-11-08T20:23:44.117Z,23.20
2022-11-08T20:26:18.507Z,21.63
2022-11-08T20:28:55.914Z,25.92
2022-11-08T20:31:25.165Z,25.25
2022-11-08T20:33:53.876Z,25.42
2022-11-08T20:36:23.266Z,23.05
2022-11-08T20:38:54.361Z,26.83
2022-11-08T20:41:21.587Z,27.67
2022-11-08T20:43:48.609Z,21.50
2022-11-08T20:46:17.992Z,22.92
2022-11-08T20:48:50.663Z,22.90
2022-11-08T20:51:19.688Z,22.33
2022-11-08T20:53:47.718Z,23.80
2022-11-08T20:56:17.285Z,18.38
2022-11-08T20:58:45.744Z,21.67
2022-11-08T21:01:16.496Z,18.40
2022-11-08T21:03:44.849Z,18.50
2022-11-08T21:06:15.109Z,20.48
2022-11-08T21:11:34.583Z,18.33
2022-11-08T21:14:02.538Z,21.67
2022-11-08T21:16:35.152Z,20.85
2022-11-08T21:19:09.759Z,27.23
2022-11-08T21:21:37.372Z,26.42
2022-11-08T21:24:04.510Z,23.08
2022-11-08T21:26:36.189Z,24.98
2022-11-08T21:29:04.713Z,24.17
2022-11-08T21:31:32.037Z,22.08
2022-11-08T21:33:59.839Z,28.73
2022-11-08T21:36:29.108Z,28.17
2022-11-08T21:38:56.373Z,28.55
2022-11-08T21:41:23.313Z,22.80
2022-11-08T21:43:50.209Z,21.98
2022-11-08T21:46:20.136Z,22.00
2022-11-08T21:48:52.342Z,15.93
2022-11-08T21:51:19.246Z,19.33
2022-11-08T21:53:53.937Z,15.20
2022-11-08T21:56:28.002Z,19.92
2022-11-08T21:58:55.074Z,17.83
2022-11-08T22:01:26.952Z,25.00
2022-11-08T22:03:55.741Z,17.20
2022-11-08T22:06:22.789Z,19.58
2022-11-08T22:08:49.872Z,17.77
2022-11-08T22:11:16.811Z,19.90
2022-11-08T22:13:43.733Z,19.77
2022-11-08T22:16:10.772Z,25.23
2022-11-08T22:21:43.042Z,19.10
2022-11-08T22:24:11.707Z,23.45
2022-11-08T22:26:39.684Z,21.80
2022-11-08T22:29:07.057Z,19.33
2022-11-08T22:31:34.511Z,19.25
2022-11-08T22:34:01.660Z,21.88
2022-11-08T22:36:28.787Z,19.60
2022-11-08T22:38:58.913Z,17.67
2022-11-08T22:41:26.041Z,17.30
2022-11-08T22:43:54.217Z,20.05
2022-11-08T22:46:21.249Z,18.02
2022-11-08T22:48:48.410Z,19.60
2022-11-08T22:51:16.751Z,20.55
2022-11-08T22:53:43.902Z,19.98
2022-11-08T22:56:12.072Z,15.50
2022-11-08T22:58:39.910Z,18.38
2022-11-08T23:01:13.187Z,17.98
2022-11-08T23:03:44.133Z,20.30
2022-11-08T23:06:11.461Z,19.50
2022-11-08T23:08:38.646Z,16.58
2022-11-08T23:11:24.718Z,18.10
2022-11-08T23:14:10.075Z,21.17
2022-11-08T23:16:41.463Z,19.95
2022-11-08T23:19:32.128Z,18.20
2022-11-08T23:22:19.457Z,13.40
2022-11-08T23:24:46.800Z,22.10
2022-11-08T23:27:35.138Z,17.65
2022-11-08T23:30:21.648Z,17.80
2022-11-08T23:32:50.422Z,18.52
2022-11-08T23:35:19.732Z,17.63
2022-11-08T23:37:47.209Z,21.20
2022-11-08T23:40:34.355Z,18.35
2022-11-08T23:43:31.878Z,24.40
2022-11-08T23:46:06.046Z,22.92
2022-11-08T23:48:33.793Z,17.48
2022-11-08T23:51:00.954Z,19.55
2022-11-08T23:53:29.556Z,19.55
2022-11-08T23:55:57.169Z,21.75
2022-11-08T23:58:24.784Z,19.63
